Terminal Aerodrome Forecast
Issued by NWS

Home | Current Version | Previous Version | Text Only | Print | Product List | Glossary On
Versions: 1 2 3 4 5 6 7 8 9 10 11 12 13 14 15 16 17 18 19 20 21 22
000
FTUS45 KFGZ 181700
TAFPGA
TAF
KPGA 181737Z 1818/1918 VRB02KT P6SM FEW006 BKN070
      TEMPO 1818/1819 BKN006
     FM182000 VRB06KT P6SM FEW006 BKN120
     FM190100 VRB03KT P6SM FEW120
      TEMPO 1910/1914 5SM HZ=

USA.gov is the U.S. government's official web portal to all federal, state and local government web resources and services.